createdAt,value
2018-08-30T00:00:29.434Z,6.03
2018-08-30T00:02:34.150Z,5.90
2018-08-30T00:04:38.977Z,6.90
2018-08-30T00:06:43.676Z,6.13
2018-08-30T00:08:48.510Z,4.93
2018-08-30T00:10:53.418Z,6.20
2018-08-30T00:12:58.228Z,7.63
2018-08-30T00:15:02.961Z,7.97
2018-08-30T00:17:07.720Z,9.20
2018-08-30T00:19:12.466Z,9.00
2018-08-30T00:21:17.204Z,8.97
2018-08-30T00:23:21.947Z,8.57
2018-08-30T00:25:26.715Z,9.00
2018-08-30T00:27:31.445Z,10.13
2018-08-30T00:29:36.355Z,11.60
2018-08-30T00:31:41.093Z,9.93
2018-08-30T00:33:45.914Z,11.87
2018-08-30T00:35:50.717Z,13.00
2018-08-30T00:37:55.500Z,12.80
2018-08-30T00:40:00.242Z,7.20
2018-08-30T00:42:05.079Z,13.27
2018-08-30T00:44:09.911Z,11.90
2018-08-30T00:46:14.728Z,13.57
2018-08-30T00:48:19.572Z,12.93
2018-08-30T00:52:21.109Z,12.50
2018-08-30T00:54:25.884Z,13.07
2018-08-30T00:56:30.766Z,13.00
2018-08-30T00:58:35.570Z,11.60
2018-08-30T01:00:40.325Z,14.77
2018-08-30T01:02:45.118Z,12.90
2018-08-30T01:04:49.787Z,12.87
2018-08-30T01:06:54.639Z,12.97
2018-08-30T01:08:59.474Z,12.97
2018-08-30T01:11:04.211Z,13.47
2018-08-30T01:13:09.005Z,13.40
2018-08-30T01:15:13.667Z,10.73
2018-08-30T01:17:18.462Z,13.93
2018-08-30T01:19:23.318Z,13.97
2018-08-30T01:21:28.259Z,15.40
2018-08-30T01:23:33.105Z,14.30
2018-08-30T01:25:38.086Z,14.80
2018-08-30T01:27:42.874Z,14.77
2018-08-30T01:29:47.590Z,15.20
2018-08-30T01:31:52.459Z,14.57
2018-08-30T01:33:57.208Z,14.30
2018-08-30T01:36:01.973Z,13.60
2018-08-30T01:38:06.758Z,13.80
2018-08-30T01:40:11.503Z,13.77
2018-08-30T01:42:16.180Z,13.60
2018-08-30T01:44:20.906Z,15.00
2018-08-30T01:46:25.660Z,14.53
2018-08-30T01:48:30.587Z,15.03
2018-08-30T01:50:36.312Z,15.37
2018-08-30T01:52:41.195Z,13.90
2018-08-30T01:54:45.996Z,15.80
2018-08-30T01:56:50.913Z,14.40
2018-08-30T01:58:55.789Z,14.40
2018-08-30T02:01:00.573Z,12.33
2018-08-30T02:03:05.831Z,15.73
2018-08-30T02:05:10.611Z,15.70
2018-08-30T02:07:15.468Z,15.73
2018-08-30T02:09:20.236Z,12.80
2018-08-30T02:11:24.931Z,16.77
2018-08-30T02:13:29.673Z,14.83
2018-08-30T02:15:34.509Z,14.60
2018-08-30T02:17:39.430Z,15.00
2018-08-30T02:19:44.245Z,16.97
2018-08-30T02:21:49.053Z,15.00
2018-08-30T02:23:53.829Z,15.97
2018-08-30T02:25:58.532Z,17.13
2018-08-30T02:28:03.521Z,16.63
2018-08-30T02:30:08.430Z,17.57
2018-08-30T02:32:13.091Z,14.47
2018-08-30T02:34:17.920Z,15.70
2018-08-30T02:36:22.738Z,15.13
2018-08-30T02:38:27.545Z,15.10
2018-08-30T02:40:32.595Z,16.23
2018-08-30T02:42:37.481Z,15.70
2018-08-30T02:44:42.491Z,17.80
2018-08-30T02:46:47.352Z,16.07
2018-08-30T02:48:52.134Z,17.10
2018-08-30T02:50:57.033Z,17.87
2018-08-30T02:53:01.964Z,17.60
2018-08-30T02:55:06.800Z,17.50
2018-08-30T02:57:11.703Z,18.17
2018-08-30T02:59:16.509Z,18.40
2018-08-30T03:01:21.332Z,18.83
2018-08-30T03:03:26.260Z,19.00
2018-08-30T03:05:31.140Z,20.70
2018-08-30T03:07:35.901Z,19.80
2018-08-30T03:09:40.668Z,20.60
2018-08-30T03:11:45.354Z,19.80
2018-08-30T03:13:50.188Z,20.73
2018-08-30T03:15:54.964Z,18.60
2018-08-30T03:17:59.805Z,18.93
2018-08-30T03:20:05.752Z,19.70
2018-08-30T03:22:10.541Z,17.80
2018-08-30T03:24:15.264Z,18.67
2018-08-30T03:26:20.053Z,19.00
2018-08-30T03:28:24.796Z,19.17
2018-08-30T03:30:29.787Z,20.57
2018-08-30T03:32:34.368Z,19.57
2018-08-30T03:34:39.053Z,20.50
2018-08-30T03:36:43.959Z,18.47
2018-08-30T03:38:49.225Z,19.97
2018-08-30T03:40:54.086Z,18.73
2018-08-30T03:42:58.949Z,20.50
2018-08-30T03:45:03.771Z,19.70
2018-08-30T03:47:08.596Z,19.43
2018-08-30T03:49:13.451Z,19.43
2018-08-30T03:51:18.224Z,20.20
2018-08-30T03:53:22.908Z,20.47
2018-08-30T03:55:27.786Z,18.90
2018-08-30T03:57:32.567Z,20.57
2018-08-30T03:59:37.724Z,21.40
2018-08-30T04:01:42.527Z,19.80
2018-08-30T04:03:47.518Z,18.60
2018-08-30T04:05:52.300Z,19.30
2018-08-30T04:07:57.112Z,18.07
2018-08-30T04:10:01.905Z,18.67
2018-08-30T04:12:06.663Z,20.53
2018-08-30T04:14:11.459Z,20.50
2018-08-30T04:16:16.191Z,19.07
2018-08-30T04:18:20.893Z,21.87
2018-08-30T04:20:25.835Z,20.30
2018-08-30T04:22:30.792Z,20.50
2018-08-30T04:24:35.559Z,18.70
2018-08-30T04:26:40.297Z,20.23
2018-08-30T04:28:45.168Z,18.10
2018-08-30T04:30:49.868Z,19.87
2018-08-30T04:32:54.614Z,19.70
2018-08-30T04:34:59.382Z,20.20
2018-08-30T04:37:05.234Z,23.07
2018-08-30T04:39:10.498Z,21.90
2018-08-30T04:41:15.161Z,21.73
2018-08-30T04:43:19.883Z,21.43
2018-08-30T04:45:24.747Z,21.93
2018-08-30T04:47:29.500Z,20.67
2018-08-30T04:49:34.385Z,21.70
2018-08-30T04:51:39.198Z,21.40
2018-08-30T04:53:43.908Z,22.87
2018-08-30T04:55:48.700Z,22.53
2018-08-30T04:57:53.550Z,20.67
2018-08-30T04:59:58.244Z,19.80
2018-08-30T05:02:03.134Z,22.83
2018-08-30T05:04:07.993Z,22.47
2018-08-30T05:06:13.314Z,23.00
2018-08-30T05:08:18.170Z,20.90
2018-08-30T05:10:23.162Z,22.97
2018-08-30T05:12:27.911Z,23.03
2018-08-30T05:14:32.660Z,21.97
2018-08-30T05:16:37.829Z,20.60
2018-08-30T05:18:42.880Z,23.10
2018-08-30T05:20:47.834Z,22.60
2018-08-30T05:22:52.763Z,23.87
2018-08-30T05:24:57.920Z,24.33
2018-08-30T05:27:02.849Z,26.57
2018-08-30T05:29:07.812Z,23.43
2018-08-30T05:31:12.518Z,23.77
2018-08-30T05:33:17.307Z,23.30
2018-08-30T05:35:22.145Z,23.67
2018-08-30T05:37:27.008Z,23.90
2018-08-30T05:39:32.103Z,21.90
2018-08-30T05:41:37.127Z,22.57
2018-08-30T05:43:41.844Z,23.10
2018-08-30T05:45:46.579Z,22.40
2018-08-30T05:47:51.703Z,25.57
2018-08-30T05:49:56.382Z,23.33
2018-08-30T05:52:01.255Z,21.50
2018-08-30T05:54:06.177Z,22.17
2018-08-30T05:56:10.917Z,22.17
2018-08-30T05:58:16.136Z,21.60
2018-08-30T06:00:20.992Z,21.07
2018-08-30T06:02:26.037Z,23.27
2018-08-30T06:04:30.861Z,20.70
2018-08-30T06:06:35.594Z,20.13
2018-08-30T06:08:40.330Z,19.30
2018-08-30T06:10:45.078Z,20.47
2018-08-30T06:12:49.821Z,19.20
2018-08-30T06:14:54.843Z,20.37
2018-08-30T06:16:59.735Z,19.30
2018-08-30T06:19:04.844Z,19.17
2018-08-30T06:21:10.235Z,19.00
2018-08-30T06:23:14.916Z,19.07
2018-08-30T06:25:19.867Z,16.20
2018-08-30T06:27:24.823Z,15.60
2018-08-30T06:29:29.492Z,16.83
2018-08-30T06:31:34.319Z,16.10
2018-08-30T06:33:38.971Z,15.23
2018-08-30T06:35:43.656Z,15.73
2018-08-30T06:37:49.245Z,15.97
2018-08-30T06:39:53.982Z,16.03
2018-08-30T06:41:58.789Z,13.17
2018-08-30T06:44:03.898Z,15.20
2018-08-30T06:46:08.568Z,14.23
2018-08-30T06:48:13.264Z,13.50
2018-08-30T06:50:18.304Z,13.47
2018-08-30T06:52:23.072Z,13.80
2018-08-30T06:54:27.771Z,10.57
2018-08-30T06:56:32.615Z,14.00
2018-08-30T06:58:37.473Z,13.23
2018-08-30T07:00:42.977Z,12.60
2018-08-30T07:02:47.843Z,10.67
2018-08-30T07:04:52.719Z,15.03
2018-08-30T07:06:57.426Z,11.53
2018-08-30T07:09:02.297Z,10.93
2018-08-30T07:11:07.036Z,11.63
2018-08-30T07:13:11.739Z,11.37
2018-08-30T07:15:16.566Z,11.13
2018-08-30T07:17:21.293Z,11.13
2018-08-30T07:19:26.252Z,11.60
2018-08-30T07:21:31.257Z,9.17
2018-08-30T07:23:36.104Z,10.33
2018-08-30T07:25:40.806Z,10.47
2018-08-30T07:27:45.570Z,9.60
2018-08-30T07:29:50.315Z,10.67
2018-08-30T07:31:55.091Z,10.40
2018-08-30T07:33:59.783Z,9.30
2018-08-30T07:36:04.665Z,8.70
2018-08-30T07:38:09.465Z,7.40
2018-08-30T07:40:14.226Z,8.30
2018-08-30T07:42:19.045Z,8.50
2018-08-30T07:44:23.913Z,6.73
2018-08-30T07:46:29.018Z,7.27
2018-08-30T07:48:33.747Z,7.30
2018-08-30T07:50:38.398Z,7.77
2018-08-30T07:52:43.153Z,6.70
2018-08-30T07:54:47.862Z,6.67
2018-08-30T07:56:53.009Z,6.33
2018-08-30T07:58:58.383Z,6.10
2018-08-30T08:01:14.847Z,6.70
2018-08-30T08:03:20.419Z,6.90
2018-08-30T08:05:25.739Z,5.80
2018-08-30T08:07:30.503Z,6.43
2018-08-30T08:09:35.184Z,7.97
2018-08-30T08:11:39.871Z,5.73
2018-08-30T08:13:44.605Z,6.63
2018-08-30T08:15:49.296Z,4.90
2018-08-30T08:17:54.014Z,5.33
2018-08-30T08:19:58.724Z,4.80
2018-08-30T08:22:03.696Z,5.23
2018-08-30T08:24:08.448Z,5.00
2018-08-30T08:26:13.208Z,5.17
2018-08-30T08:28:17.943Z,4.27
2018-08-30T08:30:23.104Z,6.70
2018-08-30T08:32:27.902Z,4.67
2018-08-30T08:34:32.744Z,4.30
2018-08-30T08:36:37.472Z,3.97
2018-08-30T08:38:42.193Z,2.90
2018-08-30T08:40:47.532Z,3.20
2018-08-30T08:42:52.350Z,3.20
2018-08-30T08:44:57.095Z,3.53
2018-08-30T08:47:01.977Z,4.17
2018-08-30T08:49:06.745Z,4.03
2018-08-30T08:51:12.167Z,4.70
2018-08-30T08:53:16.974Z,4.17
2018-08-30T08:55:21.942Z,3.40
2018-08-30T08:57:26.902Z,4.10
2018-08-30T08:59:31.756Z,3.87
2018-08-30T09:01:36.553Z,3.27
2018-08-30T09:03:41.387Z,3.20
2018-08-30T09:05:46.126Z,2.33
2018-08-30T09:07:50.983Z,3.40
2018-08-30T09:09:55.734Z,2.50
2018-08-30T09:12:00.441Z,3.47
2018-08-30T09:14:05.294Z,2.57
2018-08-30T09:16:10.031Z,3.03
2018-08-30T09:18:14.761Z,2.47
2018-08-30T09:20:19.551Z,2.97
2018-08-30T09:22:24.435Z,2.87
2018-08-30T09:24:29.231Z,3.03
2018-08-30T09:26:34.315Z,2.27
2018-08-30T09:28:39.066Z,3.90
2018-08-30T09:30:43.834Z,2.30
2018-08-30T09:32:48.612Z,2.30
2018-08-30T09:34:53.722Z,3.20
2018-08-30T09:36:58.443Z,3.50
2018-08-30T09:39:03.291Z,2.70
2018-08-30T09:41:08.186Z,2.30
2018-08-30T09:43:13.223Z,2.50
2018-08-30T09:45:18.212Z,2.70
2018-08-30T09:47:22.929Z,3.00
2018-08-30T09:49:28.133Z,1.97
2018-08-30T09:51:32.945Z,2.40
2018-08-30T09:53:37.721Z,1.53
2018-08-30T09:55:42.511Z,2.90
2018-08-30T09:57:47.198Z,1.80
2018-08-30T09:59:52.038Z,2.90
2018-08-30T10:02:01.826Z,3.33
2018-08-30T10:04:06.728Z,2.37
2018-08-30T10:06:11.535Z,2.17
2018-08-30T10:08:16.310Z,1.87
2018-08-30T10:10:21.216Z,1.63
2018-08-30T10:12:26.024Z,2.10
2018-08-30T10:14:30.813Z,1.90
2018-08-30T10:16:35.825Z,2.40
2018-08-30T10:18:40.639Z,1.47
2018-08-30T10:20:45.558Z,1.97
2018-08-30T10:22:50.428Z,2.63
2018-08-30T10:24:55.195Z,2.00
2018-08-30T10:26:59.964Z,1.67
2018-08-30T10:29:04.826Z,1.77
2018-08-30T10:31:09.581Z,1.60
2018-08-30T10:33:14.308Z,1.57
2018-08-30T10:35:19.108Z,1.40
2018-08-30T10:37:23.827Z,1.47
2018-08-30T10:39:28.657Z,1.23
2018-08-30T10:41:33.536Z,1.23
2018-08-30T10:43:38.297Z,1.17
2018-08-30T10:45:43.042Z,1.50
2018-08-30T10:47:47.764Z,1.57
2018-08-30T10:49:52.589Z,1.77
2018-08-30T10:51:57.671Z,1.60
2018-08-30T10:54:02.442Z,1.30
2018-08-30T10:56:07.215Z,1.73
2018-08-30T10:58:12.011Z,1.60
2018-08-30T11:00:17.758Z,1.60
2018-08-30T11:02:22.995Z,1.57
2018-08-30T11:04:27.973Z,0.90
2018-08-30T11:06:32.954Z,1.27
2018-08-30T11:08:37.785Z,0.93
2018-08-30T11:10:42.525Z,1.10
2018-08-30T11:12:47.292Z,0.90
2018-08-30T11:14:51.985Z,1.53
2018-08-30T11:16:56.781Z,1.20
2018-08-30T11:19:01.702Z,1.27
2018-08-30T11:21:06.577Z,1.27
2018-08-30T11:23:11.376Z,0.90
2018-08-30T11:25:16.082Z,1.40
2018-08-30T11:27:20.847Z,1.10
2018-08-30T11:29:25.881Z,0.90
2018-08-30T11:31:30.695Z,1.87
2018-08-30T11:33:38.586Z,1.40
2018-08-30T11:35:43.265Z,0.90
2018-08-30T11:37:48.008Z,1.60
2018-08-30T11:39:53.004Z,0.83
2018-08-30T11:41:57.850Z,1.50
2018-08-30T11:44:02.957Z,1.67
2018-08-30T11:46:07.966Z,1.60
2018-08-30T11:48:13.162Z,1.40
2018-08-30T11:50:18.220Z,1.60
2018-08-30T11:52:23.308Z,2.13
2018-08-30T11:54:27.969Z,1.23
2018-08-30T11:56:32.822Z,1.50
2018-08-30T11:58:37.505Z,1.53
2018-08-30T12:00:42.345Z,1.00
2018-08-30T12:02:47.424Z,1.37
2018-08-30T12:04:52.928Z,1.40
2018-08-30T12:06:57.824Z,1.37
2018-08-30T12:09:02.615Z,1.17
2018-08-30T12:11:07.474Z,1.30
2018-08-30T12:13:12.099Z,1.37
2018-08-30T12:15:16.870Z,1.00
2018-08-30T12:17:21.563Z,1.30
2018-08-30T12:19:26.323Z,1.40
2018-08-30T12:21:31.098Z,1.30
2018-08-30T12:23:35.791Z,1.10
2018-08-30T12:25:40.497Z,1.50
2018-08-30T12:27:45.227Z,1.27
2018-08-30T12:29:49.907Z,1.03
2018-08-30T12:31:54.672Z,1.37
2018-08-30T12:33:59.648Z,1.00
2018-08-30T12:36:04.608Z,2.03
2018-08-30T12:38:09.438Z,0.93
2018-08-30T12:40:14.349Z,1.70
2018-08-30T12:42:18.994Z,0.90
2018-08-30T12:44:24.244Z,1.30
2018-08-30T12:46:29.418Z,0.80
2018-08-30T12:48:34.185Z,1.23
2018-08-30T12:50:39.059Z,1.40
2018-08-30T12:52:43.856Z,1.00
2018-08-30T12:54:48.726Z,2.43
2018-08-30T12:56:53.460Z,1.17
2018-08-30T12:59:03.240Z,0.70
2018-08-30T13:01:08.447Z,1.60
2018-08-30T13:03:13.329Z,0.97
2018-08-30T13:05:18.281Z,1.07
2018-08-30T13:07:24.717Z,1.20
2018-08-30T13:09:29.851Z,0.97
2018-08-30T13:11:34.592Z,0.90
2018-08-30T13:13:39.431Z,1.30
2018-08-30T13:15:44.394Z,1.10
2018-08-30T13:17:49.366Z,1.60
2018-08-30T13:19:54.206Z,0.90
2018-08-30T13:21:58.917Z,1.23
2018-08-30T13:24:03.724Z,0.90
2018-08-30T13:26:08.752Z,1.20
2018-08-30T13:28:13.426Z,1.33
2018-08-30T13:30:18.479Z,1.40
2018-08-30T13:32:23.342Z,0.80
2018-08-30T13:34:27.755Z,1.00
2018-08-30T13:36:32.468Z,1.20
2018-08-30T13:38:37.357Z,0.90
2018-08-30T13:40:42.238Z,1.23
2018-08-30T13:42:46.927Z,1.10
2018-08-30T13:44:51.723Z,1.20
2018-08-30T13:46:56.486Z,1.30
2018-08-30T13:49:01.421Z,1.63
2018-08-30T13:51:06.277Z,1.40
2018-08-30T13:53:11.188Z,1.53
2018-08-30T13:55:16.201Z,0.90
2018-08-30T13:57:20.905Z,1.13
2018-08-30T13:59:25.788Z,1.07
2018-08-30T14:01:31.892Z,1.67
2018-08-30T14:03:36.220Z,1.40
2018-08-30T14:05:41.092Z,1.13
2018-08-30T14:07:45.945Z,1.00
2018-08-30T14:09:50.876Z,1.17
2018-08-30T14:11:56.173Z,1.47
2018-08-30T14:14:00.713Z,1.43
2018-08-30T14:16:05.307Z,1.53
2018-08-30T14:18:09.994Z,1.63
2018-08-30T14:20:14.868Z,1.00
2018-08-30T14:22:19.711Z,1.20
2018-08-30T14:24:24.423Z,1.20
2018-08-30T14:26:29.236Z,1.20
2018-08-30T14:28:33.973Z,1.23
2018-08-30T14:30:38.724Z,1.40
2018-08-30T14:32:43.500Z,1.10
2018-08-30T14:34:48.299Z,1.30
2018-08-30T14:36:53.134Z,1.57
2018-08-30T14:38:58.351Z,1.30
2018-08-30T14:41:03.117Z,1.27
2018-08-30T14:43:07.954Z,1.20
2018-08-30T14:45:13.140Z,1.47
2018-08-30T14:47:17.838Z,1.73
2018-08-30T14:49:22.639Z,1.43
2018-08-30T14:51:28.019Z,1.30
2018-08-30T14:53:32.828Z,1.20
2018-08-30T14:55:37.603Z,1.37
2018-08-30T14:57:42.343Z,1.50
2018-08-30T14:59:47.310Z,0.87
2018-08-30T15:01:52.467Z,1.17
2018-08-30T15:03:57.405Z,1.00
2018-08-30T15:06:02.679Z,1.10
2018-08-30T15:08:07.367Z,1.30
2018-08-30T15:10:12.179Z,1.60
2018-08-30T15:12:17.004Z,1.27
2018-08-30T15:14:21.955Z,1.30
2018-08-30T15:16:26.707Z,1.40
2018-08-30T15:18:31.537Z,1.50
2018-08-30T15:20:36.569Z,1.27
2018-08-30T15:22:41.553Z,1.90
2018-08-30T15:24:46.194Z,1.40
2018-08-30T15:26:50.940Z,1.60
2018-08-30T15:28:55.860Z,1.10
2018-08-30T15:31:00.710Z,1.23
2018-08-30T15:33:05.637Z,1.47
2018-08-30T15:35:10.428Z,1.70
2018-08-30T15:37:15.198Z,1.40
2018-08-30T15:39:20.024Z,1.50
2018-08-30T15:41:24.955Z,1.50
2018-08-30T15:43:29.571Z,1.10
2018-08-30T15:45:34.452Z,1.80
2018-08-30T15:47:39.313Z,1.33
2018-08-30T15:49:44.308Z,1.43
2018-08-30T15:51:49.117Z,1.80
2018-08-30T15:53:53.954Z,1.37
2018-08-30T15:55:58.674Z,1.37
2018-08-30T15:58:03.497Z,1.40
2018-08-30T16:00:08.948Z,1.40
2018-08-30T16:02:13.948Z,1.60
2018-08-30T16:04:18.672Z,1.43
2018-08-30T16:06:23.588Z,1.90
2018-08-30T16:08:28.261Z,1.63
2018-08-30T16:10:33.017Z,2.27
2018-08-30T16:12:38.009Z,1.30
2018-08-30T16:14:42.838Z,1.70
2018-08-30T16:16:48.450Z,2.03
2018-08-30T16:18:53.563Z,1.53
2018-08-30T16:20:58.507Z,1.70
2018-08-30T16:23:08.659Z,1.30
2018-08-30T16:25:13.416Z,2.07
2018-08-30T16:27:18.271Z,1.70
2018-08-30T16:29:23.071Z,1.97
2018-08-30T16:31:28.055Z,1.80
2018-08-30T16:33:32.940Z,2.23
2018-08-30T16:35:37.753Z,2.07
2018-08-30T16:37:42.860Z,1.60
2018-08-30T16:39:47.748Z,1.87
2018-08-30T16:41:52.595Z,1.87
2018-08-30T16:43:57.476Z,2.20
2018-08-30T16:46:02.354Z,1.53
2018-08-30T16:48:07.525Z,1.63
2018-08-30T16:50:12.388Z,2.00
2018-08-30T16:52:17.053Z,1.83
2018-08-30T16:54:21.881Z,1.90
2018-08-30T16:56:26.849Z,2.00
2018-08-30T16:58:31.601Z,1.70
2018-08-30T17:00:36.718Z,1.73
2018-08-30T17:02:41.941Z,1.97
2018-08-30T17:04:46.743Z,1.67
2018-08-30T17:06:51.607Z,1.70
2018-08-30T17:08:56.500Z,2.57
2018-08-30T17:11:01.316Z,1.20
2018-08-30T17:13:06.045Z,1.23
2018-08-30T17:15:10.863Z,1.70
2018-08-30T17:17:16.134Z,2.20
2018-08-30T17:19:29.077Z,1.50
2018-08-30T17:21:34.036Z,1.77
2018-08-30T17:23:38.948Z,1.70
2018-08-30T17:25:44.115Z,1.93
2018-08-30T17:27:48.963Z,1.63
2018-08-30T17:29:53.810Z,1.97
2018-08-30T17:31:58.618Z,1.60
2018-08-30T17:34:03.430Z,1.40
2018-08-30T17:36:08.444Z,1.97
2018-08-30T17:38:13.136Z,1.70
2018-08-30T17:40:18.067Z,1.60
2018-08-30T17:42:22.840Z,1.27
2018-08-30T17:44:27.754Z,1.10
2018-08-30T17:46:32.602Z,1.70
2018-08-30T17:48:37.383Z,1.90
2018-08-30T17:50:42.211Z,1.97
2018-08-30T17:52:47.174Z,1.30
2018-08-30T17:54:52.194Z,1.00
2018-08-30T17:56:57.080Z,1.50
2018-08-30T17:59:01.923Z,2.17
2018-08-30T18:01:06.821Z,1.57
2018-08-30T18:03:11.993Z,1.63
2018-08-30T18:05:17.174Z,1.80
2018-08-30T18:07:21.896Z,1.53
2018-08-30T18:09:26.747Z,1.57
2018-08-30T18:11:31.721Z,1.67
2018-08-30T18:13:36.560Z,1.53
2018-08-30T18:15:41.372Z,1.57
2018-08-30T18:17:46.708Z,2.00
2018-08-30T18:19:52.473Z,1.20
2018-08-30T18:21:57.223Z,1.67
2018-08-30T18:24:02.706Z,1.30
2018-08-30T18:26:07.895Z,2.10
2018-08-30T18:28:12.916Z,1.43
2018-08-30T18:30:18.119Z,1.93
2018-08-30T18:32:23.121Z,1.23
2018-08-30T18:34:28.522Z,1.83
2018-08-30T18:36:33.680Z,2.00
2018-08-30T18:38:38.960Z,1.50
2018-08-30T18:40:43.873Z,2.47
2018-08-30T18:42:48.951Z,1.33
2018-08-30T18:44:53.834Z,1.90
2018-08-30T18:46:58.899Z,1.30
2018-08-30T18:49:03.815Z,1.40
2018-08-30T18:51:08.730Z,1.50
2018-08-30T18:53:13.638Z,1.10
2018-08-30T18:55:18.662Z,1.70
2018-08-30T18:57:24.442Z,1.87
2018-08-30T18:59:29.283Z,1.67
2018-08-30T19:01:34.644Z,1.77
2018-08-30T19:03:41.788Z,1.60
2018-08-30T19:05:46.881Z,1.80
2018-08-30T19:07:52.202Z,2.13
2018-08-30T19:09:57.500Z,1.90
2018-08-30T19:12:04.167Z,2.07
2018-08-30T19:14:10.734Z,1.87
2018-08-30T19:18:22.277Z,1.97
2018-08-30T19:20:28.650Z,1.23
2018-08-30T19:22:33.922Z,1.80
2018-08-30T19:24:44.892Z,1.60
2018-08-30T19:26:50.835Z,1.00
2018-08-30T19:28:57.057Z,1.63
2018-08-30T19:31:02.986Z,1.33
2018-08-30T19:33:12.097Z,2.20
2018-08-30T19:35:25.516Z,1.73
2018-08-30T19:37:32.199Z,2.30
2018-08-30T19:39:41.751Z,1.47
2018-08-30T19:41:51.241Z,2.03
2018-08-30T19:44:00.547Z,2.10
2018-08-30T19:46:12.468Z,1.70
2018-08-30T19:48:21.744Z,1.63
2018-08-30T19:50:28.959Z,1.73
2018-08-30T19:52:36.752Z,2.40
2018-08-30T19:54:45.482Z,1.60
2018-08-30T19:56:50.749Z,1.70
2018-08-30T19:58:57.236Z,1.40
2018-08-30T20:01:05.976Z,1.23
2018-08-30T20:03:15.161Z,1.50
2018-08-30T20:05:22.833Z,1.90
2018-08-30T20:07:28.345Z,1.30
2018-08-30T20:09:33.563Z,1.60
2018-08-30T20:11:39.549Z,1.20
2018-08-30T20:13:45.106Z,1.63
2018-08-30T20:15:50.924Z,1.83
2018-08-30T20:17:57.456Z,1.43
2018-08-30T20:20:02.658Z,1.33
2018-08-30T20:22:11.675Z,1.47
2018-08-30T20:24:17.027Z,1.60
2018-08-30T20:26:22.429Z,1.50
2018-08-30T20:28:27.670Z,2.10
2018-08-30T20:33:16.438Z,1.70
2018-08-30T20:35:21.653Z,2.80
2018-08-30T20:37:26.563Z,1.70
2018-08-30T20:39:31.760Z,2.77
2018-08-30T20:41:36.654Z,2.03
2018-08-30T20:43:41.419Z,2.27
2018-08-30T20:45:46.480Z,2.20
2018-08-30T20:47:52.029Z,2.10
2018-08-30T20:49:57.353Z,2.23
2018-08-30T20:52:02.440Z,2.90
2018-08-30T20:54:10.155Z,1.90
2018-08-30T20:56:15.346Z,2.27
2018-08-30T20:58:20.512Z,2.20
2018-08-30T21:00:25.561Z,1.80
2018-08-30T21:02:30.447Z,2.00
2018-08-30T21:04:35.395Z,2.20
2018-08-30T21:06:40.494Z,2.53
2018-08-30T21:08:45.501Z,2.53
2018-08-30T21:10:51.489Z,2.33
2018-08-30T21:12:56.264Z,2.40
2018-08-30T21:15:01.047Z,2.37
2018-08-30T21:17:06.343Z,1.90
2018-08-30T21:19:11.109Z,2.47
2018-08-30T21:21:15.852Z,1.37
2018-08-30T21:23:20.795Z,1.27
2018-08-30T21:25:25.807Z,2.00
2018-08-30T21:27:30.712Z,1.50
2018-08-30T21:29:35.752Z,1.90
2018-08-30T21:31:40.528Z,1.50
2018-08-30T21:33:45.304Z,1.43
2018-08-30T21:35:50.432Z,1.57
2018-08-30T21:37:55.337Z,1.77
2018-08-30T21:40:00.542Z,1.67
2018-08-30T21:42:05.708Z,1.97
2018-08-30T21:44:10.551Z,1.60
2018-08-30T21:46:15.381Z,2.37
2018-08-30T21:48:20.541Z,1.47
2018-08-30T21:50:25.438Z,1.43
2018-08-30T21:52:30.218Z,2.17
2018-08-30T21:54:35.085Z,1.80
2018-08-30T21:56:39.875Z,1.73
2018-08-30T21:58:44.831Z,2.03
2018-08-30T22:00:49.725Z,2.23
2018-08-30T22:02:54.714Z,2.47
2018-08-30T22:04:59.693Z,2.00
2018-08-30T22:07:04.607Z,1.87
2018-08-30T22:09:11.722Z,1.53
2018-08-30T22:11:16.446Z,1.27
2018-08-30T22:13:21.396Z,1.87
2018-08-30T22:15:26.146Z,1.50
2018-08-30T22:17:30.952Z,1.60
2018-08-30T22:19:35.884Z,1.60
2018-08-30T22:21:40.779Z,1.30
2018-08-30T22:23:45.497Z,1.80
2018-08-30T22:25:50.412Z,2.17
2018-08-30T22:27:55.221Z,1.53
2018-08-30T22:30:00.071Z,1.67
2018-08-30T22:32:04.991Z,1.47
2018-08-30T22:34:09.728Z,1.50
2018-08-30T22:36:14.742Z,1.57
2018-08-30T22:38:19.527Z,1.27
2018-08-30T22:40:24.424Z,2.10
2018-08-30T22:42:29.066Z,1.20
2018-08-30T22:44:33.946Z,2.97
2018-08-30T22:46:38.726Z,1.60
2018-08-30T22:48:43.631Z,1.43
2018-08-30T22:50:48.420Z,1.30
2018-08-30T22:52:53.102Z,1.93
2018-08-30T22:54:57.962Z,1.90
2018-08-30T22:57:02.885Z,1.33
2018-08-30T22:59:07.806Z,1.70
2018-08-30T23:01:12.669Z,2.40
2018-08-30T23:03:17.473Z,2.63
2018-08-30T23:05:22.162Z,1.40
2018-08-30T23:07:27.251Z,1.43
2018-08-30T23:09:32.048Z,1.60
2018-08-30T23:11:36.943Z,1.20
2018-08-30T23:13:41.692Z,1.50
2018-08-30T23:15:46.363Z,1.57
2018-08-30T23:17:51.278Z,1.23
2018-08-30T23:19:56.261Z,1.47
2018-08-30T23:22:01.247Z,2.33
2018-08-30T23:24:06.409Z,1.23
2018-08-30T23:28:18.403Z,1.30
2018-08-30T23:30:23.482Z,1.03
2018-08-30T23:32:28.407Z,1.47
2018-08-30T23:34:33.152Z,1.00
2018-08-30T23:36:37.989Z,0.87
2018-08-30T23:38:42.888Z,1.70
2018-08-30T23:40:47.914Z,1.20
2018-08-30T23:42:52.703Z,1.70
2018-08-30T23:44:57.588Z,1.17
2018-08-30T23:47:02.490Z,1.23
2018-08-30T23:49:07.745Z,1.27
2018-08-30T23:51:12.720Z,0.97
2018-08-30T23:53:17.634Z,1.20
2018-08-30T23:55:22.482Z,1.83
2018-08-30T23:57:27.192Z,1.53
